Time;durP1;ratioP1;P1;durP2;ratioP2;P2;SDS_P1;SDS_P2;PMS_P1;PMS_P2;Temp;Humidity;BMP_temperature;BMP_pressure;BME280_temperature;BME280_humidity;BME280_pressure;Samples;Min_cycle;Max_cycle;Signal;HPM_P1;HPM_P2
2021/01/30 00:00:13;;;;;;;1.37;0.70;;;5.80;99.90;;;;;;5076607;28;20201;-47
2021/01/30 00:02:38;;;;;;;0.70;0.70;;;5.70;99.90;;;;;;5073193;28;20178;-48
2021/01/30 00:05:05;;;;;;;1.00;0.90;;;5.70;99.90;;;;;;5062060;28;20182;-46
2021/01/30 00:07:31;;;;;;;0.80;0.80;;;5.70;99.90;;;;;;5069601;28;20167;-45
2021/01/30 00:09:56;;;;;;;0.90;0.90;;;5.70;99.90;;;;;;5058540;28;20233;-46
2021/01/30 00:12:22;;;;;;;1.13;1.00;;;5.60;99.90;;;;;;5058165;28;20179;-50
2021/01/30 00:14:47;;;;;;;1.10;1.00;;;5.60;99.90;;;;;;5059025;28;20225;-50
2021/01/30 00:17:13;;;;;;;2.03;1.00;;;5.70;99.90;;;;;;5076752;28;20181;-46
2021/01/30 00:19:39;;;;;;;1.87;1.27;;;5.70;99.90;;;;;;5057175;28;20215;-50
2021/01/30 00:22:09;;;;;;;1.20;1.10;;;5.70;99.90;;;;;;5062912;28;20187;-45
2021/01/30 00:24:35;;;;;;;1.20;1.10;;;5.70;99.90;;;;;;5057110;28;20195;-46
2021/01/30 00:27:03;;;;;;;1.20;1.10;;;5.70;99.90;;;;;;5073720;28;20193;-48
2021/01/30 00:29:32;;;;;;;1.23;1.13;;;5.70;99.90;;;;;;5058556;28;20244;-47
2021/01/30 00:31:58;;;;;;;1.37;1.27;;;5.70;99.90;;;;;;5066445;28;20539;-47
2021/01/30 00:34:27;;;;;;;1.27;1.17;;;5.70;99.90;;;;;;5056840;28;20203;-49
2021/01/30 00:36:54;;;;;;;0.90;0.90;;;5.70;99.90;;;;;;5073615;28;20598;-46
2021/01/30 00:39:20;;;;;;;2.40;1.60;;;5.70;99.90;;;;;;5061036;28;20227;-47
2021/01/30 00:41:46;;;;;;;1.40;1.30;;;5.70;99.90;;;;;;5075645;28;20198;-50
2021/01/30 00:44:12;;;;;;;1.17;1.17;;;5.80;99.90;;;;;;5075837;28;20622;-49
2021/01/30 00:46:37;;;;;;;1.20;1.03;;;5.80;99.90;;;;;;5075901;28;20193;-45
2021/01/30 00:49:03;;;;;;;1.30;1.20;;;5.70;99.90;;;;;;5057578;28;20555;-54
2021/01/30 00:51:29;;;;;;;1.30;1.30;;;5.80;99.90;;;;;;5067815;28;20666;-47
2021/01/30 00:53:54;;;;;;;1.30;1.20;;;5.80;99.90;;;;;;5056428;28;20199;-49
2021/01/30 00:56:20;;;;;;;3.20;1.23;;;5.80;99.90;;;;;;5066254;28;20202;-48
2021/01/30 00:58:46;;;;;;;1.40;1.30;;;5.80;99.90;;;;;;5068190;28;20203;-46
2021/01/30 01:01:12;;;;;;;2.10;1.17;;;5.80;99.90;;;;;;5063937;28;20174;-47
2021/01/30 01:03:38;;;;;;;1.30;1.17;;;5.80;99.90;;;;;;5076898;28;20262;-51
2021/01/30 01:06:04;;;;;;;1.10;1.10;;;5.80;99.90;;;;;;5075616;28;20265;-53
2021/01/30 01:08:30;;;;;;;1.00;1.00;;;5.80;99.90;;;;;;5077755;28;20206;-46
2021/01/30 01:10:56;;;;;;;1.10;1.00;;;5.90;99.90;;;;;;5074657;28;20208;-46
2021/01/30 01:13:23;;;;;;;1.10;1.00;;;5.80;99.90;;;;;;5074987;28;20550;-47
2021/01/30 01:15:48;;;;;;;1.00;1.00;;;5.90;99.90;;;;;;5078028;28;20220;-46
2021/01/30 01:18:14;;;;;;;1.03;1.00;;;5.90;99.90;;;;;;5076159;28;20210;-48
2021/01/30 01:20:40;;;;;;;0.80;0.80;;;5.90;99.90;;;;;;5077064;28;20178;-49
2021/01/30 01:23:06;;;;;;;1.27;1.10;;;5.80;99.90;;;;;;5076850;28;20189;-46
2021/01/30 01:25:31;;;;;;;0.80;0.80;;;5.80;99.90;;;;;;5061496;28;20183;-46
2021/01/30 01:27:57;;;;;;;1.00;1.00;;;5.90;99.90;;;;;;5075776;28;20213;-46
2021/01/30 01:30:25;;;;;;;0.87;0.70;;;5.90;99.90;;;;;;5075219;28;20187;-48
2021/01/30 01:32:52;;;;;;;0.80;0.80;;;5.90;99.90;;;;;;5075869;28;20204;-46
2021/01/30 01:35:22;;;;;;;0.90;0.70;;;5.90;99.90;;;;;;5076967;28;20248;-47
2021/01/30 01:37:49;;;;;;;0.90;0.90;;;6.00;99.90;;;;;;5078219;28;20689;-52
2021/01/30 01:40:18;;;;;;;0.77;0.77;;;5.90;99.90;;;;;;5073975;28;20198;-47
2021/01/30 01:42:43;;;;;;;0.80;0.80;;;5.90;99.90;;;;;;5076811;28;20178;-46
2021/01/30 01:45:09;;;;;;;2.23;1.13;;;5.90;99.90;;;;;;5075297;28;20300;-46
2021/01/30 01:47:39;;;;;;;0.70;0.70;;;6.00;99.90;;;;;;5077833;28;20569;-47
2021/01/30 01:50:17;;;;;;;0.90;0.90;;;5.90;99.90;;;;;;5075438;28;20248;-49
2021/01/30 01:52:43;;;;;;;0.83;0.83;;;6.00;99.90;;;;;;5077687;28;20181;-48
2021/01/30 01:55:12;;;;;;;0.90;0.90;;;5.90;99.90;;;;;;5075111;28;20206;-50
2021/01/30 01:57:49;;;;;;;0.80;0.80;;;5.90;99.90;;;;;;5073889;28;20209;-48
2021/01/30 02:00:16;;;;;;;1.17;1.07;;;5.90;99.90;;;;;;5070941;28;20240;-48
2021/01/30 02:02:45;;;;;;;0.83;0.83;;;5.80;99.90;;;;;;5072970;28;20170;-45
2021/01/30 02:05:17;;;;;;;0.70;0.70;;;5.80;99.90;;;;;;5075236;28;20186;-48
2021/01/30 02:07:44;;;;;;;0.80;0.80;;;5.80;99.90;;;;;;5076602;28;20213;-45
2021/01/30 02:10:16;;;;;;;1.00;0.90;;;5.80;99.90;;;;;;5078481;28;20213;-50
2021/01/30 02:12:43;;;;;;;0.60;0.60;;;5.80;99.90;;;;;;5080159;28;20205;-51
2021/01/30 02:15:11;;;;;;;0.93;0.93;;;5.90;99.90;;;;;;5065846;28;20206;-53
2021/01/30 02:17:47;;;;;;;1.00;0.90;;;5.90;99.90;;;;;;5058341;28;20665;-48
2021/01/30 02:20:37;;;;;;;0.90;0.90;;;5.80;99.90;;;;;;5070527;28;20677;-48
2021/01/30 02:23:42;;;;;;;1.43;0.80;;;5.80;99.90;;;;;;5082300;28;20236;-45
2021/01/30 02:26:34;;;;;;;0.97;0.97;;;5.80;99.90;;;;;;5078824;28;20206;-51
2021/01/30 02:29:29;;;;;;;0.80;0.80;;;5.80;99.90;;;;;;5075615;28;20253;-51
2021/01/30 02:32:14;;;;;;;2.00;1.10;;;5.80;99.90;;;;;;5058710;28;20185;-47
2021/01/30 02:35:05;;;;;;;1.00;0.83;;;5.80;99.90;;;;;;5074523;28;20280;-49
2021/01/30 02:37:38;;;;;;;1.73;1.00;;;5.80;99.90;;;;;;5074719;28;20218;-46
2021/01/30 02:40:14;;;;;;;1.07;0.80;;;5.80;99.90;;;;;;5062769;28;20219;-52
2021/01/30 02:42:52;;;;;;;0.90;0.70;;;5.80;99.90;;;;;;5064953;28;20198;-46
2021/01/30 02:45:22;;;;;;;1.00;1.00;;;5.80;99.90;;;;;;5069709;28;20182;-52
2021/01/30 02:47:57;;;;;;;0.80;0.80;;;5.80;99.90;;;;;;5072890;28;20574;-48
2021/01/30 02:50:29;;;;;;;1.00;1.00;;;5.90;99.90;;;;;;5074076;28;20649;-46
2021/01/30 02:52:58;;;;;;;1.20;1.10;;;5.90;99.90;;;;;;5078012;28;20237;-46
2021/01/30 02:55:25;;;;;;;0.90;0.90;;;5.90;99.90;;;;;;5077397;28;20669;-46
2021/01/30 02:57:53;;;;;;;0.90;0.90;;;5.90;99.90;;;;;;5078565;28;20189;-45
2021/01/30 03:00:24;;;;;;;1.43;0.97;;;5.90;99.90;;;;;;5075960;28;20517;-46
2021/01/30 03:02:50;;;;;;;1.10;1.10;;;5.90;99.90;;;;;;5079293;28;20178;-48
2021/01/30 03:05:16;;;;;;;0.87;0.80;;;5.90;99.90;;;;;;5078486;28;20193;-48
2021/01/30 03:08:14;;;;;;;1.80;0.90;;;5.90;99.90;;;;;;5077181;28;20178;-46
2021/01/30 03:10:52;;;;;;;1.30;1.20;;;5.90;99.90;;;;;;5067766;28;20209;-46
2021/01/30 03:13:27;;;;;;;1.00;1.00;;;5.90;99.90;;;;;;5059528;28;20190;-46
2021/01/30 03:16:04;;;;;;;0.90;0.90;;;5.90;99.90;;;;;;5059095;28;20174;-53
2021/01/30 03:18:36;;;;;;;1.33;1.13;;;6.00;99.90;;;;;;5060310;28;20332;-48
2021/01/30 03:21:10;;;;;;;1.40;1.00;;;6.00;99.90;;;;;;5064987;28;20256;-52
2021/01/30 03:23:36;;;;;;;1.60;1.27;;;6.00;99.90;;;;;;5077501;28;20185;-48
2021/01/30 03:26:06;;;;;;;1.20;1.10;;;6.00;99.90;;;;;;5057260;28;20658;-48
2021/01/30 03:28:32;;;;;;;1.43;1.00;;;6.00;99.90;;;;;;5059420;28;20207;-48
2021/01/30 03:30:59;;;;;;;1.50;1.40;;;6.00;99.90;;;;;;5062462;28;20225;-46
2021/01/30 03:33:26;;;;;;;1.00;0.90;;;5.90;99.90;;;;;;5064750;28;20186;-46
2021/01/30 03:35:51;;;;;;;1.23;1.00;;;5.90;99.90;;;;;;5075244;28;20183;-53
2021/01/30 03:38:17;;;;;;;2.00;1.20;;;5.90;99.90;;;;;;5071508;28;20198;-52
2021/01/30 03:40:43;;;;;;;1.17;1.07;;;5.90;99.90;;;;;;5077970;28;20190;-48
2021/01/30 03:43:11;;;;;;;2.97;1.17;;;5.80;99.90;;;;;;5080047;28;20186;-45
2021/01/30 03:45:36;;;;;;;0.90;0.90;;;5.90;99.90;;;;;;5076314;28;20189;-46
2021/01/30 03:48:02;;;;;;;1.00;0.90;;;5.90;99.90;;;;;;5078078;28;20216;-47
2021/01/30 03:50:28;;;;;;;1.27;1.07;;;5.90;99.90;;;;;;5077253;28;20182;-50
2021/01/30 03:52:54;;;;;;;1.47;1.00;;;6.00;99.90;;;;;;5080096;28;20182;-49
2021/01/30 03:55:21;;;;;;;1.33;1.23;;;6.00;99.90;;;;;;5078794;28;20214;-48
2021/01/30 03:57:46;;;;;;;0.80;0.80;;;6.10;99.90;;;;;;5081822;28;20174;-46
2021/01/30 04:00:17;;;;;;;1.07;0.70;;;6.10;99.90;;;;;;5066648;28;20282;-46
2021/01/30 04:02:44;;;;;;;0.70;0.70;;;6.10;99.90;;;;;;5065967;28;20171;-49
2021/01/30 04:05:11;;;;;;;1.10;0.90;;;6.10;99.90;;;;;;5069578;28;20228;-48
2021/01/30 04:07:38;;;;;;;1.00;0.90;;;6.10;99.90;;;;;;5076497;28;20170;-50
2021/01/30 04:10:05;;;;;;;1.70;0.90;;;6.10;99.90;;;;;;5069844;28;20233;-51
2021/01/30 04:12:31;;;;;;;1.17;0.87;;;6.10;99.90;;;;;;5078978;28;20171;-46
2021/01/30 04:14:56;;;;;;;1.67;1.10;;;6.20;99.90;;;;;;5060749;28;20602;-46
2021/01/30 04:17:22;;;;;;;1.23;1.10;;;6.20;99.90;;;;;;5073684;28;20179;-48
2021/01/30 04:19:47;;;;;;;0.90;0.90;;;6.10;99.90;;;;;;5055356;28;20223;-48
2021/01/30 04:22:13;;;;;;;2.63;0.93;;;6.20;99.90;;;;;;5055575;28;20174;-47
2021/01/30 04:24:39;;;;;;;1.20;0.93;;;6.20;99.90;;;;;;5054490;28;20171;-47
2021/01/30 04:27:04;;;;;;;1.63;1.13;;;6.20;99.90;;;;;;5069719;28;20179;-45
2021/01/30 04:29:30;;;;;;;2.93;1.00;;;6.20;99.90;;;;;;5070352;28;20206;-50
2021/01/30 04:31:57;;;;;;;1.30;1.00;;;6.20;99.90;;;;;;5071034;28;20191;-50
2021/01/30 04:34:23;;;;;;;0.80;0.80;;;6.20;99.90;;;;;;5062162;28;20210;-48
2021/01/30 04:36:48;;;;;;;2.67;1.53;;;6.20;99.90;;;;;;5075575;28;20519;-46
2021/01/30 04:39:14;;;;;;;1.70;0.90;;;6.10;99.90;;;;;;5071392;28;20202;-49
2021/01/30 04:41:52;;;;;;;2.00;1.20;;;6.10;99.90;;;;;;5060978;28;20172;-49
2021/01/30 04:44:44;;;;;;;2.00;1.23;;;6.20;99.90;;;;;;5057696;28;20648;-50
2021/01/30 04:47:21;;;;;;;1.60;1.03;;;6.20;99.90;;;;;;5064747;28;20186;-48
2021/01/30 04:50:01;;;;;;;1.17;0.97;;;6.10;99.90;;;;;;5065237;28;20604;-48
2021/01/30 04:52:46;;;;;;;2.20;0.90;;;6.10;99.90;;;;;;5053347;28;20711;-48
2021/01/30 04:55:33;;;;;;;2.07;1.37;;;6.10;99.90;;;;;;5056614;28;20566;-48
2021/01/30 04:58:17;;;;;;;1.23;1.10;;;6.10;99.90;;;;;;5056601;28;20582;-47
2021/01/30 05:01:14;;;;;;;0.90;0.87;;;6.00;99.90;;;;;;5077610;28;20163;-49
2021/01/30 05:04:12;;;;;;;1.37;1.07;;;6.00;99.90;;;;;;5075616;28;20725;-50
2021/01/30 05:07:07;;;;;;;1.33;0.97;;;6.00;99.90;;;;;;5076970;28;20174;-46
2021/01/30 05:09:44;;;;;;;1.77;1.10;;;6.00;99.90;;;;;;5059654;28;20225;-48
2021/01/30 05:12:18;;;;;;;1.53;0.90;;;6.00;99.90;;;;;;5059376;28;20175;-46
2021/01/30 05:15:16;;;;;;;1.33;0.80;;;6.00;99.90;;;;;;5055934;28;20756;-49
2021/01/30 05:18:06;;;;;;;0.70;0.70;;;6.00;99.90;;;;;;4997836;28;20533;-46
2021/01/30 05:20:38;;;;;;;0.90;0.80;;;6.00;99.90;;;;;;5018590;28;20215;-46
2021/01/30 05:23:06;;;;;;;0.50;0.50;;;6.00;99.90;;;;;;5033419;28;20181;-48
2021/01/30 05:25:33;;;;;;;1.23;0.90;;;6.00;99.90;;;;;;4997381;28;20656;-46
2021/01/30 05:28:05;;;;;;;0.60;0.60;;;6.00;99.90;;;;;;5014009;28;20679;-48
2021/01/30 05:30:48;;;;;;;1.13;1.00;;;6.00;99.90;;;;;;5016135;28;20217;-45
2021/01/30 05:33:25;;;;;;;2.77;0.83;;;6.10;99.90;;;;;;5032398;28;20187;-48
2021/01/30 05:36:05;;;;;;;1.00;0.80;;;6.00;99.90;;;;;;5027615;28;20188;-48
2021/01/30 05:38:51;;;;;;;2.50;0.93;;;6.10;99.90;;;;;;5012707;28;20188;-48
2021/01/30 05:41:41;;;;;;;0.77;0.70;;;6.10;99.90;;;;;;5015057;28;20181;-45
2021/01/30 05:44:27;;;;;;;1.50;0.80;;;6.20;99.90;;;;;;5020300;28;20658;-48
2021/01/30 05:46:54;;;;;;;1.30;0.90;;;6.20;99.90;;;;;;5019190;28;20562;-46
2021/01/30 05:49:26;;;;;;;0.97;0.70;;;6.10;99.90;;;;;;5021533;28;20200;-45
2021/01/30 05:52:12;;;;;;;0.50;0.50;;;6.10;99.90;;;;;;5030743;28;20171;-47
2021/01/30 05:54:38;;;;;;;1.67;0.80;;;6.10;99.90;;;;;;5045492;28;20218;-48
2021/01/30 05:57:03;;;;;;;1.20;0.70;;;6.10;99.90;;;;;;5056188;28;20191;-47
2021/01/30 05:59:31;;;;;;;1.70;0.77;;;6.10;99.90;;;;;;5058340;28;20206;-45
2021/01/30 06:02:16;;;;;;;0.53;0.53;;;6.10;99.90;;;;;;5053228;28;20179;-45
2021/01/30 06:04:42;;;;;;;0.60;0.60;;;6.10;99.90;;;;;;5057347;28;20201;-45
2021/01/30 06:07:22;;;;;;;1.00;0.60;;;6.10;99.90;;;;;;5054989;28;20539;-46
2021/01/30 06:09:48;;;;;;;1.90;0.67;;;6.10;99.90;;;;;;5054095;28;20221;-48
2021/01/30 06:12:23;;;;;;;0.67;0.67;;;6.10;99.90;;;;;;5055087;28;20171;-47
2021/01/30 06:14:49;;;;;;;0.60;0.60;;;6.10;99.90;;;;;;5056641;28;20297;-46
2021/01/30 06:17:28;;;;;;;0.57;0.50;;;6.10;99.90;;;;;;5054277;28;20168;-45
2021/01/30 06:20:18;;;;;;;0.60;0.60;;;6.10;99.90;;;;;;5052476;28;20206;-46
2021/01/30 06:22:46;;;;;;;0.97;0.77;;;6.20;99.90;;;;;;5057947;28;20178;-48
2021/01/30 06:25:42;;;;;;;0.50;0.50;;;6.20;99.90;;;;;;5053435;28;20179;-47
2021/01/30 06:28:28;;;;;;;1.07;0.60;;;6.20;99.90;;;;;;5049151;28;20199;-48
2021/01/30 06:30:55;;;;;;;0.60;0.53;;;6.30;99.90;;;;;;5055098;28;20183;-48
2021/01/30 06:33:33;;;;;;;0.60;0.60;;;6.20;99.90;;;;;;5054362;28;20187;-46
2021/01/30 06:36:14;;;;;;;0.50;0.50;;;6.20;99.90;;;;;;5056829;28;20183;-47
2021/01/30 06:38:45;;;;;;;0.80;0.80;;;6.20;99.90;;;;;;5053994;28;20223;-46
2021/01/30 06:41:41;;;;;;;1.33;0.80;;;6.20;99.90;;;;;;5055813;28;20591;-53
2021/01/30 06:44:17;;;;;;;1.03;0.80;;;6.20;99.90;;;;;;4974071;28;20221;-46
2021/01/30 06:47:03;;;;;;;0.70;0.70;;;6.10;99.90;;;;;;4976271;28;20203;-45
2021/01/30 06:49:38;;;;;;;0.60;0.60;;;6.10;99.90;;;;;;4979100;28;20197;-48
2021/01/30 06:52:05;;;;;;;1.07;0.60;;;6.20;99.90;;;;;;4979443;28;20189;-50
2021/01/30 06:54:32;;;;;;;0.70;0.60;;;6.10;99.90;;;;;;4974675;28;20224;-46
2021/01/30 06:57:05;;;;;;;0.63;0.60;;;6.10;99.90;;;;;;4976507;28;20177;-45
2021/01/30 06:59:35;;;;;;;0.63;0.63;;;6.10;99.90;;;;;;4976662;28;20670;-49
2021/01/30 07:02:10;;;;;;;1.30;0.90;;;6.10;99.90;;;;;;4980545;28;20210;-47
2021/01/30 07:04:42;;;;;;;2.83;1.00;;;6.10;99.90;;;;;;4987709;28;20191;-48
2021/01/30 07:07:25;;;;;;;1.13;0.83;;;6.10;99.90;;;;;;4998702;28;20597;-46
2021/01/30 07:10:02;;;;;;;1.77;0.83;;;6.10;99.90;;;;;;4983055;28;20227;-47
2021/01/30 07:12:33;;;;;;;1.80;1.00;;;6.20;99.90;;;;;;4996601;28;20187;-48
2021/01/30 07:15:12;;;;;;;2.23;1.30;;;6.20;99.90;;;;;;4998912;28;20312;-46
2021/01/30 07:17:52;;;;;;;0.60;0.60;;;6.20;99.90;;;;;;4996612;28;20212;-46
2021/01/30 07:20:32;;;;;;;1.70;0.70;;;6.20;99.90;;;;;;5012140;28;20199;-47
2021/01/30 07:23:10;;;;;;;1.00;0.80;;;6.30;99.90;;;;;;5071477;28;20253;-49
2021/01/30 07:25:46;;;;;;;1.40;1.00;;;6.30;99.90;;;;;;5060321;28;20181;-45
2021/01/30 07:28:25;;;;;;;1.07;0.80;;;6.30;99.90;;;;;;5058321;28;20183;-46
2021/01/30 07:31:06;;;;;;;1.27;0.70;;;6.30;99.90;;;;;;5054947;28;20179;-47
2021/01/30 07:33:51;;;;;;;1.80;0.90;;;6.30;99.90;;;;;;5057841;28;20183;-48
2021/01/30 07:36:30;;;;;;;5.67;3.63;;;6.30;99.90;;;;;;5057303;28;20179;-48
2021/01/30 07:39:24;;;;;;;2.20;1.10;;;6.30;99.90;;;;;;5059725;28;20192;-46
2021/01/30 07:41:59;;;;;;;2.63;1.83;;;6.30;99.90;;;;;;5056315;28;20198;-46
2021/01/30 07:44:49;;;;;;;4.93;3.07;;;6.30;99.90;;;;;;5058033;28;20192;-46
2021/01/30 07:47:25;;;;;;;0.87;0.70;;;6.30;99.90;;;;;;5059793;28;20175;-45
2021/01/30 07:49:57;;;;;;;1.27;0.90;;;6.30;99.90;;;;;;5057874;28;20199;-46
2021/01/30 07:52:30;;;;;;;1.67;0.97;;;6.30;99.90;;;;;;5060892;28;20209;-46
2021/01/30 07:54:59;;;;;;;2.47;0.80;;;6.30;99.90;;;;;;5057956;28;20182;-51
2021/01/30 07:58:07;;;;;;;1.67;0.80;;;6.30;99.90;;;;;;5057157;28;20174;-46
2021/01/30 08:00:33;;;;;;;1.30;0.57;;;6.40;99.90;;;;;;4999323;28;20614;-47
2021/01/30 08:03:37;;;;;;;1.20;0.67;;;6.50;99.90;;;;;;5016615;28;20679;-48
2021/01/30 08:06:17;;;;;;;2.53;0.97;;;6.50;99.90;;;;;;4995097;28;20202;-49
2021/01/30 08:08:58;;;;;;;1.50;0.87;;;6.50;99.90;;;;;;5012828;28;20208;-45
2021/01/30 08:11:36;;;;;;;1.33;0.90;;;6.50;99.90;;;;;;5019401;28;20759;-48
2021/01/30 08:14:26;;;;;;;2.57;0.80;;;6.40;99.90;;;;;;5011752;28;20243;-47
2021/01/30 08:17:27;;;;;;;2.33;0.90;;;6.50;99.90;;;;;;5010131;28;20192;-45
2021/01/30 08:20:17;;;;;;;1.90;0.80;;;6.50;99.90;;;;;;5014673;28;20211;-47
2021/01/30 08:22:50;;;;;;;3.20;1.17;;;6.60;99.90;;;;;;5011684;28;20192;-49
2021/01/30 08:25:32;;;;;;;1.70;0.80;;;6.60;99.90;;;;;;5014718;28;20184;-46
2021/01/30 08:28:11;;;;;;;2.23;1.27;;;6.60;99.90;;;;;;5012606;28;20234;-48
2021/01/30 08:30:39;;;;;;;2.73;1.30;;;6.60;99.90;;;;;;5015390;28;20192;-48
2021/01/30 08:33:06;;;;;;;3.27;1.30;;;6.60;99.90;;;;;;5015265;28;20675;-48
2021/01/30 08:35:31;;;;;;;2.93;1.37;;;6.60;99.90;;;;;;5028014;28;20301;-46
2021/01/30 08:38:01;;;;;;;4.47;1.30;;;6.60;99.90;;;;;;5065780;28;20217;-46
2021/01/30 08:40:57;;;;;;;2.87;1.30;;;6.60;99.90;;;;;;5086103;28;20185;-55
2021/01/30 08:43:47;;;;;;;3.60;1.60;;;6.60;99.90;;;;;;5071329;28;20244;-47
2021/01/30 08:46:27;;;;;;;3.97;1.60;;;6.70;99.90;;;;;;5069385;28;20182;-48
2021/01/30 08:49:09;;;;;;;4.97;1.30;;;6.70;99.90;;;;;;5061781;28;20689;-48
2021/01/30 08:51:34;;;;;;;4.97;1.53;;;6.70;99.90;;;;;;5055908;28;20218;-45
2021/01/30 08:54:20;;;;;;;4.03;1.30;;;6.60;99.90;;;;;;5072515;28;20214;-51
2021/01/30 08:56:49;;;;;;;4.33;1.27;;;6.60;99.90;;;;;;5074743;28;20166;-51
2021/01/30 08:59:40;;;;;;;3.43;1.30;;;6.60;99.90;;;;;;5067648;28;20217;-46
2021/01/30 09:02:08;;;;;;;3.53;1.40;;;6.60;99.90;;;;;;5061120;28;20221;-49
2021/01/30 09:05:08;;;;;;;4.53;1.40;;;6.60;99.90;;;;;;5071110;28;20179;-45
2021/01/30 09:07:38;;;;;;;3.63;1.57;;;6.70;99.90;;;;;;5067201;28;20202;-47
2021/01/30 09:10:12;;;;;;;4.77;1.20;;;6.60;99.90;;;;;;5055224;28;20715;-45
2021/01/30 09:13:17;;;;;;;2.43;1.20;;;6.70;99.90;;;;;;5061555;28;20273;-48
2021/01/30 09:15:43;;;;;;;4.77;1.90;;;6.70;99.90;;;;;;5048605;28;20745;-46
2021/01/30 09:18:27;;;;;;;5.50;1.40;;;6.70;99.90;;;;;;5068160;28;20217;-48
2021/01/30 09:21:02;;;;;;;4.67;1.67;;;6.70;99.90;;;;;;5070454;28;20191;-45
2021/01/30 09:23:30;;;;;;;2.90;1.57;;;6.60;99.90;;;;;;5061751;28;20181;-44
2021/01/30 09:26:28;;;;;;;3.80;1.33;;;6.70;99.90;;;;;;5056585;28;20539;-44
2021/01/30 09:28:59;;;;;;;5.60;2.57;;;6.70;99.90;;;;;;5065508;28;20674;-55
2021/01/30 09:31:26;;;;;;;3.20;1.37;;;6.80;99.90;;;;;;5062240;28;20686;-53
2021/01/30 09:34:02;;;;;;;2.00;1.27;;;6.80;99.90;;;;;;5066134;28;20195;-47
2021/01/30 09:36:34;;;;;;;3.70;1.33;;;6.80;99.90;;;;;;5068773;28;20249;-47
2021/01/30 09:39:00;;;;;;;6.70;2.30;;;6.90;99.90;;;;;;5064197;28;20207;-50
2021/01/30 09:41:29;;;;;;;2.83;1.40;;;6.90;99.90;;;;;;5064276;28;20276;-49
2021/01/30 09:44:18;;;;;;;3.27;1.43;;;6.90;99.90;;;;;;5080998;28;20297;-52
2021/01/30 09:46:48;;;;;;;4.87;1.60;;;7.00;99.90;;;;;;5071744;28;20537;-51
2021/01/30 09:49:20;;;;;;;5.80;1.80;;;7.00;99.90;;;;;;5070764;28;20198;-51
2021/01/30 09:51:46;;;;;;;3.93;1.30;;;7.00;99.90;;;;;;5075826;28;20193;-53
2021/01/30 09:54:15;;;;;;;8.40;2.10;;;7.10;99.90;;;;;;5073175;28;20281;-49
2021/01/30 09:56:41;;;;;;;4.20;1.57;;;7.70;99.90;;;;;;5074201;28;20649;-49
2021/01/30 09:59:08;;;;;;;3.37;1.53;;;7.20;99.90;;;;;;5076733;28;20227;-50
2021/01/30 10:01:45;;;;;;;7.63;1.90;;;7.20;99.90;;;;;;5073065;28;20261;-49
2021/01/30 10:04:19;;;;;;;6.10;1.50;;;7.20;99.90;;;;;;5068728;28;20174;-54
2021/01/30 10:06:46;;;;;;;5.87;1.53;;;7.30;99.90;;;;;;5071417;28;20219;-50
2021/01/30 10:09:19;;;;;;;4.63;1.73;;;7.20;99.90;;;;;;5066890;28;20190;-49
2021/01/30 10:11:50;;;;;;;4.87;1.53;;;7.20;99.90;;;;;;5065093;28;20248;-50
2021/01/30 10:14:20;;;;;;;5.63;1.50;;;7.20;99.90;;;;;;5069424;28;20244;-49
2021/01/30 10:16:57;;;;;;;4.60;1.53;;;7.20;99.90;;;;;;5070173;28;20228;-49
2021/01/30 10:19:26;;;;;;;4.17;1.80;;;7.30;99.90;;;;;;5073129;28;20264;-51
2021/01/30 10:21:52;;;;;;;3.23;1.57;;;7.30;99.90;;;;;;5073569;28;20185;-51
2021/01/30 10:24:20;;;;;;;4.77;1.70;;;7.30;99.90;;;;;;5075875;28;20264;-50
2021/01/30 10:26:47;;;;;;;4.90;1.60;;;7.30;99.90;;;;;;5072445;28;20206;-51
2021/01/30 10:29:16;;;;;;;6.60;1.90;;;7.40;99.90;;;;;;5076154;28;20190;-53
2021/01/30 10:31:45;;;;;;;3.60;1.67;;;7.40;99.90;;;;;;5078292;28;20634;-47
2021/01/30 10:34:16;;;;;;;4.67;1.40;;;7.40;99.90;;;;;;5080188;28;20541;-49
2021/01/30 10:36:50;;;;;;;3.80;1.43;;;7.40;99.90;;;;;;5082506;28;20254;-54
2021/01/30 10:39:16;;;;;;;7.67;2.27;;;7.40;99.90;;;;;;5076301;28;20214;-49
2021/01/30 10:41:42;;;;;;;4.33;1.90;;;7.40;99.90;;;;;;5073036;28;20177;-48
2021/01/30 10:44:10;;;;;;;3.43;1.83;;;7.40;99.90;;;;;;5074739;28;20277;-51
2021/01/30 10:46:41;;;;;;;6.63;2.17;;;7.40;99.90;;;;;;5076776;28;20178;-51
2021/01/30 10:49:19;;;;;;;5.67;1.40;;;7.50;99.90;;;;;;5075957;28;20206;-48
2021/01/30 10:51:45;;;;;;;6.17;1.67;;;7.50;99.90;;;;;;5078489;28;20277;-49
2021/01/30 10:54:31;;;;;;;3.57;1.83;;;7.50;99.90;;;;;;5087490;28;20304;-50
2021/01/30 10:57:01;;;;;;;6.20;1.97;;;7.60;99.90;;;;;;5076352;28;20283;-48
2021/01/30 10:59:27;;;;;;;6.10;1.97;;;7.60;99.90;;;;;;5076279;28;20209;-47
2021/01/30 11:01:53;;;;;;;5.50;1.70;;;7.50;99.90;;;;;;5068603;28;20171;-50
2021/01/30 11:04:27;;;;;;;5.33;1.70;;;7.60;99.90;;;;;;5069482;28;20182;-50
2021/01/30 11:06:59;;;;;;;5.00;1.63;;;7.60;99.90;;;;;;5066463;28;20174;-48
2021/01/30 11:09:36;;;;;;;4.70;1.80;;;7.60;99.90;;;;;;5069755;28;20214;-49
2021/01/30 11:12:09;;;;;;;5.77;2.23;;;7.60;99.90;;;;;;5067697;28;20174;-47
2021/01/30 11:14:35;;;;;;;3.93;1.87;;;7.60;99.90;;;;;;5069903;28;20240;-49
2021/01/30 11:17:03;;;;;;;6.73;2.20;;;7.60;99.90;;;;;;5066262;28;20179;-48
2021/01/30 11:19:32;;;;;;;5.27;1.83;;;7.50;99.90;;;;;;5065369;28;20270;-50
2021/01/30 11:22:18;;;;;;;5.97;2.03;;;7.50;99.90;;;;;;5067448;28;20603;-50
2021/01/30 11:24:49;;;;;;;5.70;2.40;;;7.50;99.90;;;;;;5070090;28;20257;-48
2021/01/30 11:27:32;;;;;;;6.73;2.40;;;7.50;99.90;;;;;;5069232;28;20170;-53
2021/01/30 11:30:09;;;;;;;5.67;2.23;;;7.60;99.90;;;;;;5073460;28;20233;-47
2021/01/30 11:32:36;;;;;;;7.63;2.53;;;7.60;99.90;;;;;;5059903;28;20178;-51
2021/01/30 11:35:04;;;;;;;3.93;1.77;;;7.70;99.90;;;;;;5084667;28;20573;-53
2021/01/30 11:37:31;;;;;;;6.70;1.63;;;7.70;99.90;;;;;;5059349;28;20273;-50
2021/01/30 11:40:06;;;;;;;3.93;1.97;;;7.60;99.90;;;;;;5062641;28;20598;-51
2021/01/30 11:42:32;;;;;;;5.43;2.27;;;7.60;99.90;;;;;;5085747;28;20178;-47
2021/01/30 11:44:57;;;;;;;6.23;2.17;;;7.60;99.90;;;;;;5061551;28;20289;-49
2021/01/30 11:47:23;;;;;;;2.90;1.93;;;7.60;99.90;;;;;;5063461;28;20186;-52
2021/01/30 11:49:48;;;;;;;4.67;1.47;;;7.60;99.90;;;;;;5065180;28;20199;-47
2021/01/30 11:52:22;;;;;;;6.10;2.20;;;7.70;99.90;;;;;;5065397;28;20622;-47
2021/01/30 11:54:48;;;;;;;6.13;2.10;;;7.70;99.90;;;;;;5074291;28;20205;-47
2021/01/30 11:57:14;;;;;;;8.03;2.37;;;7.80;99.90;;;;;;5065605;28;20179;-54
2021/01/30 11:59:40;;;;;;;5.17;1.93;;;7.80;99.90;;;;;;5062867;28;20202;-49
2021/01/30 12:02:12;;;;;;;5.53;1.83;;;7.70;99.90;;;;;;5068976;28;20219;-52
2021/01/30 12:04:38;;;;;;;4.23;1.53;;;7.70;99.90;;;;;;5075863;28;20182;-49
2021/01/30 12:07:03;;;;;;;7.10;2.00;;;7.70;99.90;;;;;;5076632;28;20182;-49
2021/01/30 12:09:29;;;;;;;6.53;2.40;;;7.70;99.90;;;;;;5075715;28;20214;-51
2021/01/30 12:11:54;;;;;;;5.47;2.20;;;7.80;99.90;;;;;;5071348;28;20229;-54
2021/01/30 12:14:20;;;;;;;6.07;2.13;;;7.70;99.90;;;;;;5058646;28;20195;-50
2021/01/30 12:16:51;;;;;;;5.57;2.13;;;8.00;99.90;;;;;;5059678;28;20627;-54
2021/01/30 12:19:17;;;;;;;4.70;1.77;;;8.20;99.90;;;;;;5074708;28;20206;-53
2021/01/30 12:21:44;;;;;;;4.47;1.90;;;8.20;99.90;;;;;;5067430;28;20236;-52
2021/01/30 12:24:10;;;;;;;3.67;2.03;;;8.20;99.90;;;;;;5073544;28;20236;-50
2021/01/30 12:26:36;;;;;;;5.30;2.00;;;8.20;99.90;;;;;;5060105;28;20218;-49
2021/01/30 12:29:02;;;;;;;7.30;2.57;;;8.10;99.90;;;;;;5071869;28;20563;-53
2021/01/30 12:31:27;;;;;;;7.63;2.30;;;8.10;99.90;;;;;;5070061;28;20186;-54
2021/01/30 12:33:53;;;;;;;7.27;2.20;;;8.00;99.90;;;;;;5069887;28;20264;-51
2021/01/30 12:36:18;;;;;;;8.37;2.60;;;7.80;99.90;;;;;;5068533;28;20198;-51
2021/01/30 12:38:44;;;;;;;5.17;1.97;;;7.70;99.90;;;;;;5072446;28;20202;-47
2021/01/30 12:41:11;;;;;;;6.47;2.47;;;7.70;99.90;;;;;;5074169;28;20179;-53
2021/01/30 12:43:37;;;;;;;6.23;2.43;;;7.70;99.90;;;;;;5074932;28;20225;-49
2021/01/30 12:46:03;;;;;;;6.53;2.30;;;7.60;99.90;;;;;;5075376;28;20252;-48
2021/01/30 12:48:29;;;;;;;7.67;2.33;;;7.50;99.90;;;;;;5074252;28;20190;-47
2021/01/30 12:50:57;;;;;;;5.93;2.30;;;7.30;99.90;;;;;;5075775;28;20253;-48
2021/01/30 12:53:23;;;;;;;3.87;1.87;;;7.40;99.90;;;;;;5072779;28;20186;-47
2021/01/30 12:55:48;;;;;;;6.50;2.23;;;7.50;99.90;;;;;;5074816;28;20248;-47
2021/01/30 12:58:27;;;;;;;4.93;1.80;;;7.70;99.90;;;;;;5075478;28;20201;-51
2021/01/30 13:00:54;;;;;;;5.90;2.00;;;7.70;99.90;;;;;;5075486;28;20202;-51
2021/01/30 13:03:22;;;;;;;6.07;1.93;;;7.80;99.90;;;;;;5076658;28;20210;-47
2021/01/30 13:05:48;;;;;;;3.43;1.17;;;7.80;99.90;;;;;;5071975;28;20194;-50
2021/01/30 13:08:14;;;;;;;4.17;1.43;;;7.90;99.90;;;;;;5077838;28;20308;-50
2021/01/30 13:10:40;;;;;;;1.43;0.73;;;8.00;99.90;;;;;;5087743;28;20190;-47
2021/01/30 13:13:06;;;;;;;2.33;1.03;;;7.90;99.90;;;;;;5076975;28;20686;-50
2021/01/30 13:15:33;;;;;;;1.47;0.97;;;7.90;99.90;;;;;;5080964;28;20214;-53
2021/01/30 13:17:58;;;;;;;4.17;1.23;;;7.90;99.90;;;;;;5078149;28;20170;-45
2021/01/30 13:20:25;;;;;;;3.90;1.50;;;7.70;99.90;;;;;;5077442;28;20250;-47
2021/01/30 13:22:50;;;;;;;3.97;1.73;;;7.60;99.90;;;;;;5075704;28;20171;-53
2021/01/30 13:25:17;;;;;;;5.00;1.63;;;7.60;99.90;;;;;;5074408;28;20265;-47